createdAt,value
2018-11-21T00:01:55.666Z,-1.70
2018-11-21T00:04:37.128Z,-1.70
2018-11-21T00:07:18.076Z,-1.70
2018-11-21T00:09:59.742Z,-1.60
2018-11-21T00:16:13.927Z,-1.60
2018-11-21T00:19:00.636Z,-1.50
2018-11-21T00:21:37.122Z,-1.60
2018-11-21T00:24:19.014Z,-1.60
2018-11-21T00:27:00.286Z,-1.60
2018-11-21T00:29:41.899Z,-1.70
2018-11-21T00:32:24.598Z,-1.70
2018-11-21T00:35:04.720Z,-1.70
2018-11-21T00:37:46.089Z,-1.80
2018-11-21T00:43:29.720Z,-1.70
2018-11-21T00:46:10.944Z,-1.80
2018-11-21T00:48:52.148Z,-1.70
2018-11-21T00:51:33.561Z,-1.60
2018-11-21T00:54:15.046Z,-1.60
2018-11-21T00:56:56.470Z,-1.70
2018-11-21T00:59:38.236Z,-1.70
2018-11-21T01:02:19.302Z,-1.80
2018-11-21T01:05:01.085Z,-1.80
2018-11-21T01:07:41.970Z,-1.60
2018-11-21T01:10:23.532Z,-1.60
2018-11-21T01:13:04.948Z,-1.60
2018-11-21T01:15:46.156Z,-1.80
2018-11-21T01:18:27.278Z,-2.00
2018-11-21T01:21:08.166Z,-2.00
2018-11-21T01:23:49.530Z,-1.90
2018-11-21T01:26:31.132Z,-1.90
2018-11-21T01:29:12.208Z,-2.00
2018-11-21T01:31:53.522Z,-2.00
2018-11-21T01:34:34.487Z,-1.90
2018-11-21T01:37:15.547Z,-2.00
2018-11-21T01:39:57.068Z,-1.90
2018-11-21T01:42:38.309Z,-1.80
2018-11-21T01:45:20.098Z,-1.80
2018-11-21T01:48:01.568Z,-1.70
2018-11-21T01:50:43.176Z,-1.70
2018-11-21T01:53:24.491Z,-1.70
2018-11-21T01:56:05.450Z,-1.80
2018-11-21T01:58:46.966Z,-1.80
2018-11-21T02:01:28.045Z,-1.70
2018-11-21T02:04:09.581Z,-1.80
2018-11-21T02:06:50.683Z,-1.70
2018-11-21T02:09:31.962Z,-1.80
2018-11-21T02:12:13.293Z,-1.70
2018-11-21T02:14:54.444Z,-1.80
2018-11-21T02:17:36.127Z,-1.70
2018-11-21T02:20:17.993Z,-1.60
2018-11-21T02:22:59.756Z,-1.50
2018-11-21T02:25:41.052Z,-1.50
2018-11-21T02:28:22.443Z,-1.40
2018-11-21T02:31:04.206Z,-1.30
2018-11-21T02:33:45.841Z,-1.30
2018-11-21T02:36:26.979Z,-1.20
2018-11-21T02:39:08.578Z,-1.20
2018-11-21T02:41:49.856Z,-1.10
2018-11-21T02:44:31.856Z,-1.00
2018-11-21T02:47:13.108Z,-1.00
2018-11-21T02:49:54.794Z,-0.90
2018-11-21T02:52:36.102Z,-0.80
2018-11-21T02:55:17.505Z,-0.70
2018-11-21T02:57:59.322Z,-0.60
2018-11-21T03:00:40.879Z,-0.60
2018-11-21T03:03:22.173Z,-0.60
2018-11-21T03:06:04.048Z,-0.60
2018-11-21T03:08:45.614Z,-0.60
2018-11-21T03:11:26.741Z,-0.50
2018-11-21T03:14:08.534Z,-0.50
2018-11-21T03:16:49.886Z,-0.50
2018-11-21T03:19:31.469Z,-0.40
2018-11-21T03:22:13.610Z,-0.60
2018-11-21T03:24:55.675Z,-0.70
2018-11-21T03:27:37.531Z,-0.70
2018-11-21T03:30:19.103Z,-0.70
2018-11-21T03:33:00.077Z,-0.70
2018-11-21T03:35:41.780Z,-0.60
2018-11-21T03:38:23.248Z,-0.50
2018-11-21T03:41:05.271Z,-0.50
2018-11-21T03:43:46.694Z,-0.50
2018-11-21T03:46:28.023Z,-0.60
2018-11-21T03:49:09.700Z,-0.50
2018-11-21T03:51:50.995Z,-0.50
2018-11-21T03:54:32.750Z,-0.50
2018-11-21T03:57:13.889Z,-0.40
2018-11-21T03:59:55.440Z,-0.40
2018-11-21T04:02:37.118Z,-0.40
2018-11-21T04:05:18.531Z,-0.40
2018-11-21T04:07:59.595Z,-0.40
2018-11-21T04:10:40.870Z,-0.40
2018-11-21T04:13:22.432Z,-0.60
2018-11-21T04:16:03.969Z,-0.50
2018-11-21T04:18:49.877Z,-0.40
2018-11-21T04:21:30.782Z,-0.40
2018-11-21T04:24:12.582Z,-0.50
2018-11-21T04:26:53.821Z,-0.40
2018-11-21T04:29:35.080Z,-0.40
2018-11-21T04:32:16.026Z,-0.40
2018-11-21T04:34:57.155Z,-0.30
2018-11-21T04:37:38.580Z,-0.30
2018-11-21T04:40:19.550Z,-0.30
2018-11-21T04:43:00.985Z,-0.30
2018-11-21T04:45:42.787Z,-0.20
2018-11-21T04:48:23.870Z,-0.20
2018-11-21T04:51:04.953Z,-0.20
2018-11-21T04:53:46.421Z,-0.20
2018-11-21T04:56:27.844Z,-0.10
2018-11-21T04:59:09.063Z,-0.10
2018-11-21T05:01:50.391Z,-0.10
2018-11-21T05:04:32.130Z,-0.20
2018-11-21T05:07:13.310Z,-0.20
2018-11-21T05:09:55.066Z,-0.20
2018-11-21T05:12:37.307Z,-0.10
2018-11-21T05:15:18.362Z,-0.10
2018-11-21T05:17:59.866Z,-0.10
2018-11-21T05:20:41.714Z,-0.10
2018-11-21T05:23:23.385Z,-0.20
2018-11-21T05:25:52.534Z,-0.20
2018-11-21T05:28:41.023Z,-0.20
2018-11-21T05:31:29.451Z,-0.20
2018-11-21T05:34:10.903Z,-0.10
2018-11-21T05:36:52.451Z,-0.10
2018-11-21T05:39:33.616Z,-0.20
2018-11-21T05:44:56.907Z,-0.10
2018-11-21T05:47:38.690Z,-0.10
2018-11-21T05:50:20.027Z,0.00
2018-11-21T05:53:01.411Z,0.00
2018-11-21T05:55:42.825Z,0.10
2018-11-21T05:58:24.174Z,0.10
2018-11-21T06:00:54.677Z,0.20
2018-11-21T06:04:02.554Z,0.10
2018-11-21T06:06:43.796Z,0.10
2018-11-21T06:09:26.604Z,0.20
2018-11-21T06:12:07.260Z,0.10
2018-11-21T06:14:48.496Z,0.20
2018-11-21T06:17:30.246Z,0.20
2018-11-21T06:20:12.642Z,0.20
2018-11-21T06:22:52.225Z,0.10
2018-11-21T06:25:33.688Z,0.10
2018-11-21T06:28:15.434Z,0.20
2018-11-21T06:30:56.872Z,0.20
2018-11-21T06:33:38.238Z,0.30
2018-11-21T06:36:19.605Z,0.40
2018-11-21T06:39:00.978Z,0.40
2018-11-21T06:41:42.369Z,0.40
2018-11-21T06:44:23.330Z,0.50
2018-11-21T06:47:04.764Z,0.60
2018-11-21T06:49:46.507Z,0.60
2018-11-21T06:52:28.018Z,0.60
2018-11-21T06:55:09.270Z,0.60
2018-11-21T06:57:50.907Z,0.60
2018-11-21T07:00:32.703Z,0.60
2018-11-21T07:03:14.454Z,0.60
2018-11-21T07:05:55.656Z,0.60
2018-11-21T07:08:37.492Z,0.70
2018-11-21T07:11:18.851Z,0.70
2018-11-21T07:14:00.300Z,0.80
2018-11-21T07:16:41.963Z,0.70
2018-11-21T07:19:23.168Z,0.80
2018-11-21T07:22:04.626Z,0.80
2018-11-21T07:27:35.639Z,0.80
2018-11-21T07:33:06.797Z,1.00
2018-11-21T07:38:41.245Z,0.90
2018-11-21T07:44:10.661Z,0.80
2018-11-21T07:46:59.123Z,0.70
2018-11-21T07:52:27.709Z,0.80
2018-11-21T07:58:00.125Z,1.00
2018-11-21T08:07:00.580Z,1.40
2018-11-21T08:15:46.069Z,1.20
2018-11-21T08:30:55.583Z,1.50
2018-11-21T08:42:10.765Z,1.60
2018-11-21T08:53:23.604Z,1.60
2018-11-21T08:58:47.477Z,1.70
2018-11-21T09:01:29.519Z,1.80
2018-11-21T09:06:58.278Z,1.80
2018-11-21T09:12:22.383Z,1.80
2018-11-21T09:15:03.475Z,1.80
2018-11-21T09:26:08.864Z,2.00
2018-11-21T09:37:21.565Z,1.80
2018-11-21T09:40:02.627Z,1.90
2018-11-21T09:42:45.323Z,1.90
2018-11-21T09:48:13.126Z,2.00
2018-11-21T09:50:54.363Z,2.10
2018-11-21T09:53:35.873Z,2.10
2018-11-21T09:56:16.933Z,2.10
2018-11-21T09:58:58.173Z,2.10
2018-11-21T10:01:39.721Z,2.10
2018-11-21T10:04:21.453Z,2.10
2018-11-21T10:07:03.222Z,2.00
2018-11-21T10:09:46.730Z,2.00
2018-11-21T10:12:27.823Z,2.10
2018-11-21T10:15:09.182Z,2.00
2018-11-21T10:17:50.282Z,2.00
2018-11-21T10:23:24.969Z,2.00
2018-11-21T10:26:06.317Z,1.90
2018-11-21T10:28:47.892Z,1.90
2018-11-21T10:31:28.814Z,2.00
2018-11-21T10:34:10.105Z,2.10
2018-11-21T10:36:51.371Z,2.10
2018-11-21T10:39:31.468Z,2.20
2018-11-21T10:42:19.879Z,2.10
2018-11-21T10:44:59.356Z,2.20
2018-11-21T10:47:47.758Z,2.10
2018-11-21T10:50:29.226Z,2.10
2018-11-21T10:53:11.113Z,2.20
2018-11-21T10:55:52.410Z,2.30
2018-11-21T10:58:33.515Z,2.40
2018-11-21T11:01:23.796Z,2.50
2018-11-21T11:04:27.633Z,2.50
2018-11-21T11:07:27.858Z,2.60
2018-11-21T11:10:28.349Z,2.60
2018-11-21T11:16:15.330Z,2.70
2018-11-21T11:19:15.878Z,2.70
2018-11-21T11:22:16.411Z,2.70
2018-11-21T11:25:16.379Z,2.60
2018-11-21T11:28:17.271Z,2.70
2018-11-21T11:31:06.605Z,2.80
2018-11-21T11:34:06.780Z,3.00
2018-11-21T11:37:10.312Z,2.90
2018-11-21T11:40:10.745Z,2.80
2018-11-21T11:43:14.122Z,2.80
2018-11-21T11:46:14.304Z,2.80
2018-11-21T11:49:14.786Z,2.70
2018-11-21T11:52:21.468Z,2.70
2018-11-21T11:55:21.438Z,2.80
2018-11-21T11:58:21.776Z,2.70
2018-11-21T12:01:22.131Z,2.80
2018-11-21T12:04:15.386Z,2.90
2018-11-21T12:07:15.738Z,2.90
2018-11-21T12:10:16.500Z,2.90
2018-11-21T12:19:27.194Z,2.70
2018-11-21T12:22:27.273Z,2.70
2018-11-21T12:25:30.506Z,2.70
2018-11-21T12:31:03.061Z,2.60
2018-11-21T12:34:07.107Z,2.60
2018-11-21T12:37:07.536Z,2.50
2018-11-21T12:42:50.695Z,2.60
2018-11-21T12:45:51.260Z,2.70
2018-11-21T12:48:33.260Z,2.60
2018-11-21T12:51:34.057Z,2.60
2018-11-21T12:54:15.081Z,2.60
2018-11-21T12:59:58.432Z,2.60
2018-11-21T13:03:02.049Z,2.70
2018-11-21T13:14:36.594Z,2.90
2018-11-21T13:17:36.880Z,2.80
2018-11-21T13:20:36.912Z,2.90
2018-11-21T13:23:44.421Z,2.90
2018-11-21T13:26:44.444Z,2.80
2018-11-21T13:32:37.461Z,2.80
2018-11-21T13:35:38.079Z,2.70
2018-11-21T13:38:23.342Z,2.80
2018-11-21T13:43:45.566Z,2.90
2018-11-21T13:49:32.456Z,2.80
2018-11-21T13:55:22.415Z,2.90
2018-11-21T13:58:03.588Z,3.00
2018-11-21T14:00:45.192Z,2.90
2018-11-21T14:06:09.484Z,3.00
2018-11-21T14:08:50.688Z,3.00
2018-11-21T14:11:32.244Z,3.00
2018-11-21T14:16:59.292Z,3.10
2018-11-21T14:19:40.732Z,3.10
2018-11-21T14:22:21.852Z,3.00
2018-11-21T14:25:03.280Z,3.00
2018-11-21T14:27:45.839Z,3.00
2018-11-21T14:33:13.664Z,3.00
2018-11-21T14:38:44.273Z,3.00
2018-11-21T14:41:25.182Z,3.00
2018-11-21T14:44:06.908Z,3.00
2018-11-21T14:50:01.293Z,3.00
2018-11-21T14:52:43.247Z,2.90
2018-11-21T14:55:24.845Z,2.90
2018-11-21T14:58:08.316Z,2.90
2018-11-21T15:03:38.289Z,2.90
2018-11-21T15:06:19.811Z,2.90
2018-11-21T15:09:01.260Z,2.90
2018-11-21T15:11:45.712Z,2.80
2018-11-21T15:14:27.500Z,2.80
2018-11-21T15:17:08.682Z,2.80
2018-11-21T15:19:50.474Z,2.80
2018-11-21T15:22:30.102Z,2.70
2018-11-21T15:25:19.754Z,2.70
2018-11-21T15:28:01.510Z,2.70
2018-11-21T15:30:42.411Z,2.70
2018-11-21T15:33:24.096Z,2.70
2018-11-21T15:36:05.479Z,2.60
2018-11-21T15:38:47.334Z,2.60
2018-11-21T15:41:28.643Z,2.60
2018-11-21T15:44:11.138Z,2.60
2018-11-21T15:53:44.493Z,2.50
2018-11-21T15:56:25.425Z,2.50
2018-11-21T15:59:10.539Z,2.50
2018-11-21T16:01:52.149Z,2.50
2018-11-21T16:04:33.514Z,2.50
2018-11-21T16:10:01.279Z,2.60
2018-11-21T16:16:15.038Z,2.50
2018-11-21T16:21:37.440Z,2.60
2018-11-21T16:30:04.786Z,2.50
2018-11-21T16:32:46.179Z,2.50
2018-11-21T16:35:27.189Z,2.50
2018-11-21T16:38:06.816Z,2.50
2018-11-21T16:40:47.942Z,2.50
2018-11-21T16:43:29.134Z,2.40
2018-11-21T16:46:10.491Z,2.30
2018-11-21T16:48:51.599Z,2.30
2018-11-21T16:51:33.024Z,2.20
2018-11-21T16:54:14.436Z,2.20
2018-11-21T16:56:55.597Z,2.20
2018-11-21T16:59:37.150Z,2.20
2018-11-21T17:02:18.657Z,2.30
2018-11-21T17:04:47.699Z,2.20
2018-11-21T17:07:36.132Z,2.20
2018-11-21T17:10:26.072Z,2.30
2018-11-21T17:13:07.585Z,2.30
2018-11-21T17:15:48.684Z,2.20
2018-11-21T17:18:33.497Z,2.20
2018-11-21T17:21:14.470Z,2.30
2018-11-21T17:23:56.111Z,2.30
2018-11-21T17:26:37.228Z,2.30
2018-11-21T17:29:18.747Z,2.20
2018-11-21T17:32:00.000Z,2.30
2018-11-21T17:34:42.305Z,2.30
2018-11-21T17:40:13.934Z,2.30
2018-11-21T17:42:55.846Z,2.30
2018-11-21T17:45:38.739Z,2.30
2018-11-21T17:48:19.773Z,2.30
2018-11-21T17:51:00.745Z,2.30
2018-11-21T17:53:42.243Z,2.20
2018-11-21T17:56:23.739Z,2.20
2018-11-21T17:59:05.151Z,2.20
2018-11-21T18:01:46.205Z,2.20
2018-11-21T18:04:27.399Z,2.20
2018-11-21T18:07:08.990Z,2.30
2018-11-21T18:09:50.330Z,2.30
2018-11-21T18:12:31.602Z,2.30
2018-11-21T18:15:11.950Z,2.30
2018-11-21T18:17:53.206Z,2.20
2018-11-21T18:20:34.914Z,2.20
2018-11-21T18:29:13.979Z,2.40
2018-11-21T18:31:54.960Z,2.40
2018-11-21T18:34:34.468Z,2.30
2018-11-21T18:37:22.877Z,2.30
2018-11-21T18:40:13.604Z,2.40
2018-11-21T18:45:45.417Z,2.40
2018-11-21T18:48:27.097Z,2.40
2018-11-21T18:51:08.584Z,2.30
2018-11-21T18:53:54.820Z,2.30
2018-11-21T18:56:30.753Z,2.10
2018-11-21T18:59:11.640Z,2.20
2018-11-21T19:01:52.665Z,2.20
2018-11-21T19:07:16.644Z,2.20
2018-11-21T19:09:58.259Z,2.20
2018-11-21T19:12:40.962Z,2.30
2018-11-21T19:15:21.988Z,2.20
2018-11-21T19:18:03.136Z,2.20
2018-11-21T19:20:44.505Z,2.20
2018-11-21T19:23:26.029Z,2.10
2018-11-21T19:26:07.712Z,2.20
2018-11-21T19:34:52.045Z,2.40
2018-11-21T19:37:33.821Z,2.30
2018-11-21T19:40:16.316Z,2.20
2018-11-21T19:42:58.013Z,2.20
2018-11-21T19:45:39.093Z,2.20
2018-11-21T19:51:52.983Z,2.10
2018-11-21T19:54:34.262Z,2.10
2018-11-21T19:57:15.853Z,2.10
2018-11-21T19:59:56.880Z,2.20
2018-11-21T20:02:38.491Z,2.10
2018-11-21T20:05:19.561Z,2.10
2018-11-21T20:08:00.877Z,2.10
2018-11-21T20:10:42.556Z,2.10
2018-11-21T20:13:24.189Z,2.10
2018-11-21T20:16:05.819Z,2.10
2018-11-21T20:18:47.507Z,2.10
2018-11-21T20:21:28.830Z,2.10
2018-11-21T20:24:10.219Z,2.10
2018-11-21T20:26:51.470Z,1.90
2018-11-21T20:29:32.958Z,1.90
2018-11-21T20:32:14.349Z,2.00
2018-11-21T20:34:56.085Z,2.10
2018-11-21T20:37:37.138Z,2.00
2018-11-21T20:40:20.264Z,2.00
2018-11-21T20:43:02.046Z,2.00
2018-11-21T20:45:42.941Z,1.90
2018-11-21T20:48:24.624Z,1.80
2018-11-21T20:51:05.616Z,1.90
2018-11-21T20:53:47.238Z,1.90
2018-11-21T20:56:28.374Z,2.00
2018-11-21T20:59:09.814Z,2.00
2018-11-21T21:01:50.715Z,1.90
2018-11-21T21:04:32.167Z,1.90
2018-11-21T21:07:13.676Z,1.90
2018-11-21T21:09:55.107Z,1.90
2018-11-21T21:12:36.524Z,1.90
2018-11-21T21:15:20.626Z,1.80
2018-11-21T21:18:01.560Z,1.80
2018-11-21T21:20:43.181Z,1.80
2018-11-21T21:23:24.426Z,1.70
2018-11-21T21:25:53.530Z,1.80
2018-11-21T21:28:41.937Z,1.80
2018-11-21T21:31:22.811Z,1.80
2018-11-21T21:34:04.184Z,1.80
2018-11-21T21:36:45.616Z,1.80
2018-11-21T21:39:27.241Z,1.80
2018-11-21T21:42:08.621Z,1.80
2018-11-21T21:44:49.426Z,1.90
2018-11-21T21:47:30.438Z,1.90
2018-11-21T21:50:12.626Z,1.90
2018-11-21T21:52:54.474Z,1.80
2018-11-21T21:55:35.497Z,1.80
2018-11-21T21:58:17.211Z,1.80
2018-11-21T22:00:58.827Z,1.80
2018-11-21T22:03:40.567Z,1.70
2018-11-21T22:06:21.541Z,1.70
2018-11-21T22:09:03.860Z,1.70
2018-11-21T22:11:44.724Z,1.70
2018-11-21T22:14:25.601Z,1.80
2018-11-21T22:17:06.755Z,1.80
2018-11-21T22:19:48.237Z,1.80
2018-11-21T22:22:29.803Z,1.80
2018-11-21T22:25:11.561Z,1.90
2018-11-21T22:27:52.602Z,1.90
2018-11-21T22:30:33.690Z,1.90
2018-11-21T22:33:15.327Z,1.90
2018-11-21T22:36:02.684Z,1.90
2018-11-21T22:38:37.339Z,1.90
2018-11-21T22:41:18.747Z,1.90
2018-11-21T22:44:00.135Z,1.90
2018-11-21T22:46:41.029Z,1.90
2018-11-21T22:49:22.251Z,1.80
2018-11-21T22:52:03.586Z,1.70
2018-11-21T22:54:45.071Z,1.80
2018-11-21T22:57:26.844Z,1.80
2018-11-21T23:00:08.121Z,1.80
2018-11-21T23:02:49.658Z,1.80
2018-11-21T23:05:34.197Z,1.80
2018-11-21T23:08:12.750Z,1.70
2018-11-21T23:10:53.811Z,1.70
2018-11-21T23:13:35.333Z,1.70
2018-11-21T23:16:16.725Z,1.60
2018-11-21T23:22:32.666Z,1.60
2018-11-21T23:25:13.671Z,1.60
2018-11-21T23:27:55.104Z,1.50
2018-11-21T23:30:36.610Z,1.60
2018-11-21T23:33:18.097Z,1.70
2018-11-21T23:35:59.457Z,1.60
2018-11-21T23:38:40.730Z,1.60
2018-11-21T23:44:55.141Z,1.50
2018-11-21T23:47:36.641Z,1.40
2018-11-21T23:50:18.692Z,1.30
2018-11-21T23:56:32.471Z,1.30
